Time;durP1;ratioP1;P1;durP2;ratioP2;P2;SDS_P1;SDS_P2;PMS_P1;PMS_P2;Temp;Humidity;BMP_temperature;BMP_pressure;BME280_temperature;BME280_humidity;BME280_pressure;Samples;Min_cycle;Max_cycle;Signal;HPM_P1;HPM_P2
2023/03/20 00:00:29;;;;;;;3.80;2.72;;;7.50;99.90;;;;;;5070922;28;20568;-69
2023/03/20 00:02:55;;;;;;;4.72;2.90;;;7.70;99.90;;;;;;5089254;28;20507;-69
2023/03/20 00:05:23;;;;;;;4.75;3.13;;;7.50;99.90;;;;;;5075593;28;20505;-69
2023/03/20 00:07:49;;;;;;;7.50;3.53;;;7.70;99.90;;;;;;5078096;28;20036;-69
2023/03/20 00:10:19;;;;;;;;;;;7.50;99.90;;;;;;5068373;28;20475;-69
2023/03/20 00:12:47;;;;;;;4.18;3.17;;;7.60;99.90;;;;;;5089454;28;20007;-69
2023/03/20 00:15:30;;;;;;;4.22;2.95;;;7.40;99.90;;;;;;5088760;28;20051;-69
2023/03/20 00:17:56;;;;;;;5.78;3.60;;;7.40;99.90;;;;;;5080325;28;20527;-69
2023/03/20 00:20:22;;;;;;;4.97;3.15;;;7.40;99.90;;;;;;5086996;28;20056;-69
2023/03/20 00:22:48;;;;;;;3.22;2.70;;;7.50;99.90;;;;;;5081116;28;20036;-69
2023/03/20 00:25:16;;;;;;;3.92;2.65;;;7.30;99.90;;;;;;5058910;28;20120;-69
2023/03/20 00:27:43;;;;;;;4.05;2.70;;;7.30;99.90;;;;;;5083343;28;20174;-69
2023/03/20 00:30:25;;;;;;;5.13;3.35;;;7.50;99.90;;;;;;5072167;28;20045;-69
2023/03/20 00:32:51;;;;;;;5.18;2.53;;;7.30;99.90;;;;;;5088175;28;20146;-69
2023/03/20 00:35:29;;;;;;;4.43;2.95;;;7.50;99.90;;;;;;5072478;28;20044;-69
2023/03/20 00:37:56;;;;;;;4.18;3.00;;;7.30;99.90;;;;;;5071244;28;20054;-69
2023/03/20 00:40:27;;;;;;;4.78;3.10;;;7.40;99.90;;;;;;5088752;28;20123;-69
2023/03/20 00:42:59;;;;;;;5.93;2.92;;;7.40;99.90;;;;;;5064454;28;20060;-69
2023/03/20 00:45:25;;;;;;;6.35;2.88;;;7.30;99.90;;;;;;5090373;28;20039;-69
2023/03/20 00:47:52;;;;;;;6.65;2.70;;;7.40;99.90;;;;;;5082398;28;20044;-69
2023/03/20 00:50:25;;;;;;;6.20;2.90;;;7.40;99.90;;;;;;5088209;28;20058;-69
2023/03/20 00:52:52;;;;;;;6.32;2.85;;;7.40;99.90;;;;;;5079783;28;20056;-69
2023/03/20 00:55:20;;;;;;;4.32;2.83;;;7.30;99.90;;;;;;5083153;28;20044;-68
2023/03/20 00:57:56;;;;;;;4.10;2.80;;;7.40;99.90;;;;;;5087602;28;20098;-69
2023/03/20 01:00:24;;;;;;;3.70;2.70;;;7.40;99.90;;;;;;5078572;28;20545;-69
2023/03/20 01:02:56;;;;;;;4.28;2.40;;;7.20;99.90;;;;;;5076790;28;20464;-69
2023/03/20 01:05:22;;;;;;;2.92;2.13;;;7.40;99.90;;;;;;5076784;28;20051;-69
2023/03/20 01:07:48;;;;;;;6.88;2.65;;;7.40;99.90;;;;;;5087803;28;20044;-68
2023/03/20 01:10:14;;;;;;;4.43;2.47;;;7.40;99.90;;;;;;5088672;28;20055;-69
2023/03/20 01:12:41;;;;;;;6.10;2.60;;;7.40;99.90;;;;;;5073450;28;20044;-69
2023/03/20 01:15:23;;;;;;;4.95;2.72;;;7.40;99.90;;;;;;5084769;28;20074;-69
2023/03/20 01:17:49;;;;;;;2.83;2.40;;;7.30;99.90;;;;;;5082295;28;20097;-69
2023/03/20 01:20:22;;;;;;;4.32;2.58;;;7.40;99.90;;;;;;5074707;28;20044;-69
2023/03/20 01:22:48;;;;;;;3.38;2.15;;;7.40;99.90;;;;;;5085124;28;20036;-70
2023/03/20 01:25:15;;;;;;;4.60;2.50;;;7.40;99.90;;;;;;5085763;28;20047;-69
2023/03/20 01:27:47;;;;;;;4.93;2.63;;;7.50;99.90;;;;;;5084237;28;20040;-69
2023/03/20 01:30:32;;;;;;;5.13;2.50;;;7.50;99.90;;;;;;5088523;28;20135;-69
2023/03/20 01:33:00;;;;;;;6.43;2.80;;;7.30;99.90;;;;;;5070168;28;20395;-69
2023/03/20 01:35:27;;;;;;;3.25;1.98;;;7.40;99.90;;;;;;5074429;28;20475;-70
2023/03/20 01:37:55;;;;;;;4.63;2.38;;;7.30;99.90;;;;;;5081659;28;20051;-70
2023/03/20 01:40:38;;;;;;;2.80;1.92;;;7.30;99.90;;;;;;5067388;28;20033;-69
2023/03/20 01:43:13;;;;;;;4.00;2.47;;;7.50;99.90;;;;;;5075327;28;20060;-69
2023/03/20 01:46:06;;;;;;;5.55;2.85;;;7.50;99.90;;;;;;5082948;28;20494;-69
2023/03/20 01:48:56;;;;;;;7.10;3.20;;;7.40;99.90;;;;;;5087224;28;20059;-69
2023/03/20 01:51:35;;;;;;;6.00;2.83;;;7.30;99.90;;;;;;5065661;28;20048;-69
2023/03/20 01:54:15;;;;;;;5.32;3.00;;;7.40;99.90;;;;;;5093550;28;20101;-69
2023/03/20 01:56:57;;;;;;;5.78;3.00;;;7.50;99.90;;;;;;5062520;28;20376;-70
2023/03/20 01:59:36;;;;;;;6.05;3.58;;;7.40;99.90;;;;;;5090992;28;20172;-69
2023/03/20 02:02:05;;;;;;;5.00;3.10;;;7.30;99.90;;;;;;5074966;28;20119;-69
2023/03/20 02:04:37;;;;;;;5.32;3.13;;;7.40;99.90;;;;;;5074415;28;20123;-69
2023/03/20 02:07:05;;;;;;;6.68;3.30;;;7.60;99.90;;;;;;5082036;28;20089;-69
2023/03/20 02:09:31;;;;;;;3.58;2.63;;;7.60;99.90;;;;;;5068457;28;20054;-69
2023/03/20 02:11:57;;;;;;;5.57;2.65;;;7.50;99.90;;;;;;5064993;28;20044;-69
2023/03/20 02:14:24;;;;;;;6.68;3.88;;;7.40;99.90;;;;;;5074980;28;20048;-69
2023/03/20 02:16:50;;;;;;;7.10;3.80;;;7.30;99.90;;;;;;5085976;28;20119;-69
2023/03/20 02:19:45;;;;;;;7.68;3.47;;;7.40;99.90;;;;;;5088078;28;20507;-69
2023/03/20 02:22:14;;;;;;;6.70;3.55;;;7.70;99.90;;;;;;5084977;28;20479;-70
2023/03/20 02:25:03;;;;;;;7.50;3.90;;;7.30;99.90;;;;;;5079637;28;20055;-69
2023/03/20 02:27:43;;;;;;;7.60;4.50;;;7.40;99.90;;;;;;5085207;28;20111;-69
2023/03/20 02:30:36;;;;;;;12.95;4.10;;;7.70;99.90;;;;;;5082624;28;20410;-69
2023/03/20 02:33:22;;;;;;;8.05;4.65;;;7.40;99.90;;;;;;5085344;28;20048;-69
2023/03/20 02:36:08;;;;;;;8.15;4.50;;;7.50;99.90;;;;;;5075407;28;20055;-69
2023/03/20 02:39:10;;;;;;;7.15;4.00;;;7.50;99.90;;;;;;5078764;28;20103;-69
2023/03/20 02:41:48;;;;;;;6.63;3.53;;;7.70;99.90;;;;;;5069987;28;20102;-70
2023/03/20 02:44:51;;;;;;;5.28;3.25;;;7.60;99.90;;;;;;5091324;28;20109;-69
2023/03/20 02:47:36;;;;;;;5.80;3.88;;;7.50;99.90;;;;;;5082724;28;20407;-69
2023/03/20 02:50:10;;;;;;;8.45;4.40;;;7.80;99.90;;;;;;5077850;28;20052;-69
2023/03/20 02:53:09;;;;;;;6.57;4.07;;;7.70;99.90;;;;;;5080455;28;20099;-69
2023/03/20 02:55:40;;;;;;;7.20;4.18;;;7.60;99.90;;;;;;5069142;28;20047;-69
2023/03/20 02:58:08;;;;;;;6.30;4.18;;;7.80;99.90;;;;;;5079935;28;20048;-69
2023/03/20 03:00:46;;;;;;;9.57;4.20;;;7.70;99.90;;;;;;5073238;28;20502;-69
2023/03/20 03:03:27;;;;;;;9.18;5.05;;;7.50;99.90;;;;;;5079754;28;20395;-69
2023/03/20 03:05:57;;;;;;;8.88;4.53;;;7.50;99.90;;;;;;5082325;28;20086;-69
2023/03/20 03:08:27;;;;;;;8.15;4.38;;;7.60;99.90;;;;;;5076979;28;20032;-68
2023/03/20 03:11:13;;;;;;;12.10;5.75;;;7.60;99.90;;;;;;5088829;28;20472;-69
2023/03/20 03:13:51;;;;;;;9.40;4.88;;;7.80;99.90;;;;;;5088060;28;20052;-69
2023/03/20 03:16:27;;;;;;;9.55;5.28;;;7.80;99.90;;;;;;5073164;28;20399;-69
2023/03/20 03:19:14;;;;;;;10.52;5.00;;;7.50;99.90;;;;;;5077265;28;20564;-69
2023/03/20 03:21:40;;;;;;;9.13;4.87;;;7.50;99.90;;;;;;5087550;28;20119;-69
2023/03/20 03:24:19;;;;;;;10.05;5.35;;;7.70;99.90;;;;;;5085196;28;20745;-69
2023/03/20 03:26:45;;;;;;;12.93;5.90;;;7.60;99.90;;;;;;5081395;28;20124;-69
2023/03/20 03:29:16;;;;;;;7.88;5.22;;;7.90;99.90;;;;;;5081374;28;20120;-70
2023/03/20 03:31:43;;;;;;;10.25;5.47;;;7.80;99.90;;;;;;5089561;28;20649;-69
2023/03/20 03:34:15;;;;;;;8.60;5.30;;;7.60;99.90;;;;;;5074541;28;20444;-70
2023/03/20 03:36:55;;;;;;;9.38;4.97;;;7.60;99.90;;;;;;5076723;28;20051;-69
2023/03/20 03:39:40;;;;;;;9.45;5.07;;;7.60;99.90;;;;;;5059751;28;20484;-69
2023/03/20 03:42:30;;;;;;;8.07;5.22;;;7.60;99.90;;;;;;5077245;28;20099;-69
2023/03/20 03:44:58;;;;;;;11.30;5.32;;;7.60;99.90;;;;;;5070292;28;20101;-68
2023/03/20 03:47:47;;;;;;;9.80;5.30;;;7.60;99.90;;;;;;5086277;28;20175;-69
2023/03/20 03:50:47;;;;;;;10.18;5.60;;;7.90;99.90;;;;;;5070988;28;20048;-69
2023/03/20 03:53:16;;;;;;;11.32;6.00;;;7.80;99.90;;;;;;5081369;28;20048;-69
2023/03/20 03:55:46;;;;;;;9.00;5.80;;;7.90;99.90;;;;;;5071129;28;20055;-69
2023/03/20 03:58:23;;;;;;;9.80;5.35;;;7.90;99.90;;;;;;5070564;28;20590;-69
2023/03/20 04:00:51;;;;;;;10.35;5.00;;;7.90;99.90;;;;;;5056601;28;20079;-69
2023/03/20 04:03:22;;;;;;;10.23;5.38;;;7.70;99.90;;;;;;5075295;28;20044;-69
2023/03/20 04:05:50;;;;;;;11.48;5.90;;;7.90;99.90;;;;;;5075453;28;20040;-69
2023/03/20 04:08:16;;;;;;;12.13;6.35;;;7.90;99.90;;;;;;5069449;28;20474;-69
2023/03/20 04:10:42;;;;;;;10.98;6.35;;;7.90;99.90;;;;;;5081587;28;20052;-69
2023/03/20 04:13:07;;;;;;;8.75;5.70;;;7.90;99.90;;;;;;5076492;28;20040;-69
2023/03/20 04:15:33;;;;;;;7.75;4.78;;;7.90;99.90;;;;;;5081882;28;20035;-69
2023/03/20 04:17:59;;;;;;;11.95;6.28;;;7.80;99.90;;;;;;5077504;28;20093;-69
2023/03/20 04:20:24;;;;;;;12.07;5.97;;;7.80;99.90;;;;;;5056153;28;20044;-69
2023/03/20 04:22:50;;;;;;;9.77;5.68;;;7.90;99.90;;;;;;5061775;28;20048;-69
2023/03/20 04:25:19;;;;;;;8.05;4.80;;;7.90;99.90;;;;;;5079920;28;20053;-69
2023/03/20 04:27:45;;;;;;;7.18;5.00;;;7.90;99.90;;;;;;5070733;28;20072;-69
2023/03/20 04:30:11;;;;;;;10.80;5.45;;;7.80;99.90;;;;;;5076559;28;20225;-70
2023/03/20 04:32:37;;;;;;;10.57;5.82;;;7.90;99.90;;;;;;5082565;28;20055;-70
2023/03/20 04:35:02;;;;;;;8.88;5.68;;;7.90;99.90;;;;;;5072853;28;20052;-69
2023/03/20 04:37:28;;;;;;;11.95;6.53;;;7.90;99.90;;;;;;5073705;28;20498;-70
2023/03/20 04:39:54;;;;;;;8.82;5.70;;;7.90;99.90;;;;;;5081953;28;20047;-70
2023/03/20 04:42:20;;;;;;;11.27;5.85;;;7.90;99.90;;;;;;5083946;28;20780;-70
2023/03/20 04:44:45;;;;;;;10.38;5.88;;;7.80;99.90;;;;;;5076481;28;20043;-70
2023/03/20 04:47:11;;;;;;;9.35;5.18;;;7.90;99.90;;;;;;5071149;28;20051;-70
2023/03/20 04:49:37;;;;;;;10.55;5.05;;;7.90;99.90;;;;;;5086759;28;20039;-70
2023/03/20 04:52:03;;;;;;;8.45;5.00;;;7.80;99.90;;;;;;5067924;28;20116;-70
2023/03/20 04:54:28;;;;;;;10.65;6.13;;;7.90;99.90;;;;;;5079686;28;20040;-70
2023/03/20 04:56:54;;;;;;;9.30;6.38;;;7.90;99.90;;;;;;5079768;28;20117;-68
2023/03/20 04:59:20;;;;;;;8.95;6.47;;;7.90;99.90;;;;;;5080281;28;20044;-68
2023/03/20 05:01:46;;;;;;;11.65;6.20;;;7.90;99.90;;;;;;5077218;28;20044;-68
2023/03/20 05:04:11;;;;;;;10.00;6.53;;;7.90;99.90;;;;;;5074071;28;20052;-75
2023/03/20 05:06:37;;;;;;;13.45;7.43;;;7.90;99.90;;;;;;5068498;28;20044;-75
2023/03/20 05:09:03;;;;;;;14.13;7.57;;;7.90;99.90;;;;;;5071865;28;20041;-75
2023/03/20 05:11:29;;;;;;;11.38;6.53;;;8.00;99.90;;;;;;5069405;28;20048;-75
2023/03/20 05:13:55;;;;;;;10.40;6.57;;;7.90;99.90;;;;;;5062657;28;20059;-75
2023/03/20 05:16:20;;;;;;;10.70;6.63;;;8.00;99.90;;;;;;5078902;28;20048;-76
2023/03/20 05:18:46;;;;;;;10.40;6.47;;;8.00;99.90;;;;;;5073743;28;20504;-75
2023/03/20 05:21:12;;;;;;;9.75;6.80;;;8.00;99.90;;;;;;5057535;28;20536;-75
2023/03/20 05:23:38;;;;;;;11.75;7.13;;;8.00;99.90;;;;;;5076171;28;20090;-76
2023/03/20 05:26:04;;;;;;;11.65;6.35;;;8.00;99.90;;;;;;5083378;28;20032;-75
2023/03/20 05:28:30;;;;;;;10.82;6.68;;;8.00;99.90;;;;;;5080016;28;20111;-73
2023/03/20 05:30:56;;;;;;;9.13;5.90;;;8.00;99.90;;;;;;5081402;28;20037;-74
2023/03/20 05:33:22;;;;;;;14.80;6.75;;;7.90;99.90;;;;;;5081063;28;20406;-74
2023/03/20 05:35:47;;;;;;;10.55;6.57;;;8.00;99.90;;;;;;5077442;28;20036;-75
2023/03/20 05:38:13;;;;;;;9.80;6.10;;;8.00;99.90;;;;;;5077511;28;20040;-74
2023/03/20 05:40:40;;;;;;;8.77;6.10;;;7.90;99.90;;;;;;5075949;28;20424;-75
2023/03/20 05:43:06;;;;;;;10.32;6.40;;;7.90;99.90;;;;;;5056667;28;20079;-74
2023/03/20 05:45:32;;;;;;;11.93;6.47;;;7.90;99.90;;;;;;5058996;28;20492;-75
2023/03/20 05:47:58;;;;;;;10.30;6.28;;;7.90;99.90;;;;;;5089149;28;20057;-74
2023/03/20 05:50:24;;;;;;;9.98;6.10;;;7.90;99.90;;;;;;5082780;28;20051;-73
2023/03/20 05:52:50;;;;;;;10.38;5.95;;;7.90;99.90;;;;;;5080797;28;20040;-74
2023/03/20 05:55:15;;;;;;;11.13;6.40;;;7.90;99.90;;;;;;5072973;28;20033;-74
2023/03/20 05:57:41;;;;;;;10.50;6.50;;;7.90;99.90;;;;;;5062521;28;20415;-73
2023/03/20 06:00:09;;;;;;;11.77;6.28;;;7.90;99.90;;;;;;5084045;28;20043;-74
2023/03/20 06:02:35;;;;;;;9.30;6.32;;;7.90;99.90;;;;;;5071328;28;20044;-73
2023/03/20 06:05:02;;;;;;;10.10;6.53;;;7.90;99.90;;;;;;5050672;28;20052;-73
2023/03/20 06:07:28;;;;;;;11.77;6.25;;;7.90;99.90;;;;;;5071207;28;20721;-73
2023/03/20 06:09:54;;;;;;;12.27;7.03;;;7.90;99.90;;;;;;5069464;28;20138;-73
2023/03/20 06:12:20;;;;;;;9.77;6.25;;;7.90;99.90;;;;;;5068621;28;20067;-73
2023/03/20 06:14:46;;;;;;;10.18;6.45;;;7.90;99.90;;;;;;5080216;28;20036;-72
2023/03/20 06:17:11;;;;;;;11.27;6.65;;;7.90;99.90;;;;;;5093135;28;20183;-73
2023/03/20 06:19:37;;;;;;;11.13;6.40;;;7.90;99.90;;;;;;5083820;28;20553;-73
2023/03/20 06:22:03;;;;;;;11.52;6.60;;;7.90;99.90;;;;;;5049382;28;20047;-73
2023/03/20 06:24:29;;;;;;;10.43;6.68;;;7.90;99.90;;;;;;5055278;28;20063;-73
2023/03/20 06:26:55;;;;;;;12.65;6.95;;;7.90;99.90;;;;;;5057608;28;20459;-73
2023/03/20 06:29:21;;;;;;;14.45;6.80;;;7.90;99.90;;;;;;5076104;28;20133;-73
2023/03/20 06:31:47;;;;;;;9.70;6.82;;;8.00;99.90;;;;;;5073054;28;20128;-74
2023/03/20 06:34:13;;;;;;;12.07;7.68;;;8.00;99.90;;;;;;5081943;28;20070;-73
2023/03/20 06:36:39;;;;;;;;;;;8.00;99.90;;;;;;5088703;28;20691;-76
2023/03/20 06:39:05;;;;;;;13.50;7.72;;;8.10;99.90;;;;;;5091030;28;19916;-74
2023/03/20 06:41:31;;;;;;;10.98;7.38;;;8.00;99.90;;;;;;5084518;28;20090;-73
2023/03/20 06:43:56;;;;;;;13.40;7.18;;;8.10;99.90;;;;;;5084052;28;20406;-73
2023/03/20 06:46:22;;;;;;;11.48;7.72;;;8.10;99.90;;;;;;5081575;28;20079;-74
2023/03/20 06:48:48;;;;;;;14.25;7.82;;;8.10;99.90;;;;;;5076568;28;20036;-75
2023/03/20 06:51:14;;;;;;;12.38;7.60;;;8.10;99.90;;;;;;5075869;28;20044;-74
2023/03/20 06:53:42;;;;;;;;;;;8.10;99.90;;;;;;5080481;28;20124;-74
2023/03/20 06:56:11;;;;;;;12.80;7.75;;;8.10;99.90;;;;;;5064054;28;19916;-74
2023/03/20 06:58:38;;;;;;;12.90;7.13;;;8.10;99.90;;;;;;5086977;28;20048;-74
2023/03/20 07:01:16;;;;;;;14.13;8.13;;;8.10;99.90;;;;;;5073357;28;21569;-72
2023/03/20 07:03:42;;;;;;;14.07;8.18;;;8.20;99.90;;;;;;5070748;28;20131;-73
2023/03/20 07:06:08;;;;;;;13.68;7.85;;;8.20;99.90;;;;;;5081292;28;20044;-73
2023/03/20 07:08:35;;;;;;;10.85;7.35;;;8.20;99.90;;;;;;5083812;28;20087;-74
2023/03/20 07:11:03;;;;;;;12.32;6.90;;;8.30;99.90;;;;;;5079607;28;20048;-72
2023/03/20 07:13:29;;;;;;;10.93;7.43;;;8.30;99.90;;;;;;5071998;28;20078;-72
2023/03/20 07:15:56;;;;;;;12.30;7.70;;;8.30;99.90;;;;;;5054184;28;20081;-73
2023/03/20 07:18:21;;;;;;;10.68;7.05;;;8.30;99.90;;;;;;5061806;28;20380;-73
2023/03/20 07:20:47;;;;;;;11.48;7.53;;;8.30;99.90;;;;;;5084082;28;20077;-73
2023/03/20 07:23:13;;;;;;;10.98;7.35;;;8.40;99.90;;;;;;5071706;28;20048;-73
2023/03/20 07:25:38;;;;;;;15.10;8.20;;;8.50;99.90;;;;;;5070598;28;20152;-73
2023/03/20 07:28:04;;;;;;;14.82;8.57;;;8.50;99.90;;;;;;5081605;28;20069;-73
2023/03/20 07:30:31;;;;;;;12.05;7.88;;;8.60;99.90;;;;;;5090579;28;20124;-73
2023/03/20 07:32:57;;;;;;;14.02;7.88;;;8.60;99.90;;;;;;5090874;28;20395;-73
2023/03/20 07:35:23;;;;;;;12.45;7.45;;;8.70;99.90;;;;;;5090430;28;20044;-73
2023/03/20 07:37:49;;;;;;;12.98;7.72;;;8.80;99.90;;;;;;5091919;28;20203;-73
2023/03/20 07:40:15;;;;;;;10.27;6.85;;;8.90;99.90;;;;;;5077298;28;20178;-73
2023/03/20 07:42:41;;;;;;;13.05;8.57;;;9.00;99.90;;;;;;5078254;28;20131;-72
2023/03/20 07:45:08;;;;;;;12.32;7.85;;;8.90;99.90;;;;;;5081522;28;20063;-72
2023/03/20 07:47:34;;;;;;;10.77;7.13;;;8.90;99.90;;;;;;5076242;28;20032;-73
2023/03/20 07:49:59;;;;;;;14.85;8.93;;;9.00;99.90;;;;;;5082257;28;20460;-73
2023/03/20 07:52:25;;;;;;;13.75;8.50;;;8.90;99.90;;;;;;5068044;28;20130;-72
2023/03/20 07:54:51;;;;;;;13.98;8.60;;;9.00;99.90;;;;;;5077696;28;20089;-72
2023/03/20 07:57:17;;;;;;;13.23;7.78;;;9.00;99.90;;;;;;5091620;28;20372;-73
2023/03/20 07:59:43;;;;;;;13.93;7.82;;;9.00;99.90;;;;;;5038060;28;20110;-73
2023/03/20 08:02:16;;;;;;;14.93;8.90;;;9.00;99.90;;;;;;5069885;28;20045;-74
2023/03/20 08:04:42;;;;;;;11.98;8.13;;;9.10;99.90;;;;;;5084207;28;20053;-73
2023/03/20 08:07:09;;;;;;;13.07;8.43;;;9.10;99.90;;;;;;5069891;28;20048;-73
2023/03/20 08:09:35;;;;;;;16.58;8.48;;;9.10;99.90;;;;;;5086365;28;20040;-72
2023/03/20 08:12:01;;;;;;;13.25;8.15;;;9.20;99.90;;;;;;5064590;28;20040;-74
2023/03/20 08:14:26;;;;;;;15.43;8.43;;;9.10;99.90;;;;;;5064077;28;20048;-73
2023/03/20 08:16:52;;;;;;;14.23;7.97;;;9.10;99.90;;;;;;5075764;28;20049;-74
2023/03/20 08:19:18;;;;;;;12.60;8.93;;;9.20;99.90;;;;;;5053018;28;20041;-73
2023/03/20 08:21:43;;;;;;;14.05;8.68;;;9.10;99.90;;;;;;5070081;28;20518;-72
2023/03/20 08:24:09;;;;;;;14.90;9.00;;;9.00;99.90;;;;;;5090464;28;20036;-73
2023/03/20 08:26:35;;;;;;;19.92;9.48;;;9.00;99.90;;;;;;5090003;28;20458;-72
2023/03/20 08:29:01;;;;;;;14.63;8.75;;;9.00;99.90;;;;;;5089004;28;20123;-73
2023/03/20 08:31:27;;;;;;;14.23;8.80;;;9.00;99.90;;;;;;5079441;28;20043;-73
2023/03/20 08:33:54;;;;;;;11.80;7.90;;;9.00;99.90;;;;;;5085367;28;20557;-73
2023/03/20 08:36:20;;;;;;;13.48;8.32;;;9.10;99.90;;;;;;5078546;28;20057;-72
2023/03/20 08:38:47;;;;;;;12.80;8.07;;;9.10;99.90;;;;;;5059003;28;20032;-73
2023/03/20 08:41:13;;;;;;;16.85;9.07;;;9.10;99.90;;;;;;5089852;28;20044;-73
2023/03/20 08:43:39;;;;;;;13.93;8.35;;;9.10;99.90;;;;;;5089680;28;20444;-73
2023/03/20 08:46:05;;;;;;;13.35;8.38;;;9.20;99.90;;;;;;5089581;28;20131;-73
2023/03/20 08:48:31;;;;;;;14.98;8.60;;;9.20;99.90;;;;;;5072797;28;20566;-73
2023/03/20 08:50:57;;;;;;;14.77;8.75;;;9.30;99.90;;;;;;5089594;28;20043;-72
2023/03/20 08:53:22;;;;;;;16.10;9.00;;;9.40;99.90;;;;;;5089796;28;20070;-73
2023/03/20 08:55:49;;;;;;;18.02;8.77;;;9.40;99.90;;;;;;5089569;28;20384;-71
2023/03/20 08:58:16;;;;;;;12.75;8.00;;;9.40;99.90;;;;;;5089622;28;20048;-71
2023/03/20 09:00:42;;;;;;;13.73;7.93;;;9.50;99.90;;;;;;5089440;28;20510;-72
2023/03/20 09:03:13;;;;;;;13.60;8.50;;;9.50;99.90;;;;;;5089235;28;20093;-73
2023/03/20 09:05:40;;;;;;;13.55;7.65;;;9.50;99.90;;;;;;5060706;28;20197;-73
2023/03/20 09:08:06;;;;;;;14.15;7.32;;;9.60;99.90;;;;;;5055655;28;20040;-73
2023/03/20 09:10:31;;;;;;;14.25;8.10;;;9.70;99.90;;;;;;5079227;28;20055;-73
2023/03/20 09:12:57;;;;;;;12.90;7.55;;;9.80;99.90;;;;;;5085701;28;20040;-73
2023/03/20 09:15:23;;;;;;;12.73;7.57;;;9.90;99.90;;;;;;5070750;28;20044;-73
2023/03/20 09:17:49;;;;;;;12.43;7.07;;;10.00;99.90;;;;;;5069430;28;20036;-73
2023/03/20 09:20:14;;;;;;;13.27;7.65;;;10.10;99.90;;;;;;5085311;28;20057;-72
2023/03/20 09:22:42;;;;;;;16.38;7.80;;;10.10;99.90;;;;;;5089545;28;20173;-73
2023/03/20 09:25:08;;;;;;;12.65;7.22;;;10.10;99.90;;;;;;5042102;28;20048;-72
2023/03/20 09:27:34;;;;;;;15.27;7.63;;;10.10;99.90;;;;;;5072776;28;20036;-74
2023/03/20 09:29:59;;;;;;;13.27;6.93;;;10.10;99.90;;;;;;5073016;28;20090;-74
2023/03/20 09:32:25;;;;;;;11.38;7.30;;;10.10;99.90;;;;;;5074976;28;20491;-74
2023/03/20 09:34:51;;;;;;;11.57;6.53;;;10.20;99.90;;;;;;5089311;28;20082;-73
2023/03/20 09:37:16;;;;;;;14.85;7.75;;;10.20;99.90;;;;;;5074943;28;20044;-73
2023/03/20 09:39:42;;;;;;;17.38;7.75;;;10.30;99.90;;;;;;5088690;28;20063;-69
2023/03/20 09:42:28;;;;;;;11.77;6.70;;;10.40;99.90;;;;;;5087176;28;20051;-69
2023/03/20 09:45:19;;;;;;;13.65;8.00;;;10.40;99.90;;;;;;5092377;28;20394;-69
2023/03/20 09:47:50;;;;;;;14.55;8.35;;;10.40;99.90;;;;;;5077900;28;20139;-69
2023/03/20 09:51:03;;;;;;;13.25;7.55;;;10.30;99.90;;;;;;5092810;28;20471;-69
2023/03/20 09:53:34;;;;;;;12.77;7.57;;;10.40;99.90;;;;;;5073031;28;20067;-69
2023/03/20 09:56:00;;;;;;;14.38;8.00;;;10.30;99.90;;;;;;5069349;28;20044;-69
2023/03/20 09:58:32;;;;;;;14.13;7.32;;;10.30;99.90;;;;;;5080381;28;20483;-69
2023/03/20 10:01:01;;;;;;;13.88;7.13;;;10.40;99.90;;;;;;5093212;28;20411;-69
2023/03/20 10:03:28;;;;;;;13.82;8.20;;;10.60;99.90;;;;;;5093127;28;20087;-69
2023/03/20 10:06:02;;;;;;;11.82;6.18;;;10.60;99.90;;;;;;5091764;28;20040;-69
2023/03/20 10:08:34;;;;;;;14.20;7.75;;;10.80;99.90;;;;;;5084376;28;20044;-69
2023/03/20 10:11:23;;;;;;;14.80;7.07;;;10.90;99.90;;;;;;5085835;28;20383;-69
2023/03/20 10:14:04;;;;;;;12.68;7.30;;;10.90;99.90;;;;;;5077156;28;20475;-69
2023/03/20 10:16:35;;;;;;;15.18;6.88;;;11.00;99.90;;;;;;5077974;28;20048;-69
2023/03/20 10:19:13;;;;;;;11.70;7.60;;;10.90;99.90;;;;;;5072884;28;20070;-69
2023/03/20 10:21:48;;;;;;;12.98;7.32;;;10.80;99.90;;;;;;5068646;28;20459;-69
2023/03/20 10:24:21;;;;;;;16.10;7.60;;;10.70;99.90;;;;;;5091266;28;20040;-69
2023/03/20 10:26:51;;;;;;;12.93;7.00;;;10.60;99.90;;;;;;5091215;28;20040;-69
2023/03/20 10:29:32;;;;;;;11.38;6.30;;;10.60;99.90;;;;;;5091511;28;20040;-69
2023/03/20 10:32:22;;;;;;;11.93;6.85;;;10.60;99.90;;;;;;5091182;28;20055;-69
2023/03/20 10:35:10;;;;;;;13.90;6.47;;;10.70;99.90;;;;;;5081256;28;20044;-69
2023/03/20 10:37:57;;;;;;;17.55;6.95;;;10.80;99.90;;;;;;5084960;28;20045;-69
2023/03/20 10:40:28;;;;;;;15.27;6.28;;;10.70;99.90;;;;;;5086754;28;20043;-70
2023/03/20 10:43:16;;;;;;;11.85;6.35;;;10.90;99.90;;;;;;5090738;28;20155;-69
2023/03/20 10:45:50;;;;;;;14.02;6.22;;;10.80;99.90;;;;;;5090590;28;20048;-69
2023/03/20 10:48:25;;;;;;;12.48;6.28;;;10.80;99.90;;;;;;5092411;28;20076;-69
2023/03/20 10:50:54;;;;;;;11.90;6.30;;;10.90;99.90;;;;;;5088882;28;20052;-69
2023/03/20 10:53:44;;;;;;;14.20;6.10;;;11.10;99.90;;;;;;5070159;28;20381;-69
2023/03/20 10:56:15;;;;;;;10.65;6.22;;;11.30;99.90;;;;;;5084177;28;20044;-69
2023/03/20 10:58:44;;;;;;;15.02;5.93;;;11.10;99.90;;;;;;5070688;28;20082;-69
2023/03/20 11:01:09;;;;;;;11.45;5.80;;;11.00;99.90;;;;;;5087605;28;20177;-69
2023/03/20 11:03:38;;;;;;;11.18;5.32;;;11.00;99.90;;;;;;5074130;28;20123;-70
2023/03/20 11:06:17;;;;;;;11.57;5.57;;;10.90;99.90;;;;;;5057483;28;20051;-70
2023/03/20 11:08:48;;;;;;;12.55;5.93;;;10.80;99.90;;;;;;5073874;28;20368;-70
2023/03/20 11:11:21;;;;;;;10.38;5.43;;;10.60;99.90;;;;;;5071818;28;20052;-69
2023/03/20 11:13:48;;;;;;;14.57;5.78;;;10.50;99.90;;;;;;5075639;28;20402;-69
2023/03/20 11:16:33;;;;;;;12.23;5.75;;;10.50;99.90;;;;;;5073753;28;20059;-70
2023/03/20 11:19:09;;;;;;;13.00;5.80;;;10.40;99.90;;;;;;5070023;28;20056;-70
2023/03/20 11:21:45;;;;;;;15.07;5.55;;;10.40;99.90;;;;;;5083675;28;20154;-70
2023/03/20 11:24:44;;;;;;;11.65;5.47;;;10.40;99.90;;;;;;5084127;28;20399;-69
2023/03/20 11:27:17;;;;;;;12.68;5.22;;;10.40;99.90;;;;;;5088265;28;20115;-69
2023/03/20 11:29:47;;;;;;;14.57;6.00;;;10.40;99.90;;;;;;5080007;28;20078;-69
2023/03/20 11:32:32;;;;;;;11.05;4.82;;;10.30;99.90;;;;;;5082690;28;20454;-69
2023/03/20 11:35:24;;;;;;;12.02;4.68;;;10.30;99.90;;;;;;5070034;28;20048;-68
2023/03/20 11:37:52;;;;;;;11.63;5.00;;;10.20;99.90;;;;;;5073540;28;20044;-68
2023/03/20 11:40:31;;;;;;;10.25;4.20;;;10.10;99.90;;;;;;5083142;28;20071;-69
2023/03/20 11:43:00;;;;;;;10.32;4.63;;;10.10;99.90;;;;;;5072874;28;20048;-70
2023/03/20 11:45:52;;;;;;;8.23;4.30;;;10.10;99.90;;;;;;5090010;28;20040;-69
2023/03/20 11:48:31;;;;;;;10.70;4.45;;;10.10;99.90;;;;;;5080305;28;20047;-69
2023/03/20 11:51:03;;;;;;;13.18;4.50;;;10.10;99.90;;;;;;5084220;28;20056;-69
2023/03/20 11:53:40;;;;;;;8.43;4.20;;;10.10;99.90;;;;;;5079429;28;20052;-69
2023/03/20 11:56:14;;;;;;;10.52;4.78;;;10.10;99.90;;;;;;5089888;28;20432;-69
2023/03/20 11:59:00;;;;;;;11.63;4.72;;;10.00;99.90;;;;;;5089812;28;20083;-69
2023/03/20 12:01:27;;;;;;;9.50;4.38;;;9.90;99.90;;;;;;5089455;28;20051;-69
2023/03/20 12:04:13;;;;;;;10.02;4.70;;;10.00;99.90;;;;;;5071722;28;20127;-69
2023/03/20 12:06:47;;;;;;;10.93;4.30;;;10.00;99.90;;;;;;5083560;28;20072;-69
2023/03/20 12:09:32;;;;;;;7.28;3.67;;;9.90;99.90;;;;;;5069289;28;20041;-69
2023/03/20 12:12:12;;;;;;;9.27;3.63;;;9.90;99.90;;;;;;5069226;28;20534;-69
2023/03/20 12:14:55;;;;;;;8.82;4.00;;;9.80;99.90;;;;;;5081789;28;20094;-69
2023/03/20 12:17:46;;;;;;;7.93;3.25;;;9.70;99.90;;;;;;5069113;28;20040;-69
2023/03/20 12:20:30;;;;;;;6.72;3.17;;;9.70;99.90;;;;;;5085302;28;20044;-69
2023/03/20 12:23:10;;;;;;;7.45;2.80;;;9.70;99.90;;;;;;5078632;28;20565;-69
2023/03/20 12:26:20;;;;;;;6.60;2.67;;;9.70;99.90;;;;;;5087833;28;20039;-69
2023/03/20 12:28:50;;;;;;;7.07;2.90;;;9.60;99.90;;;;;;5079386;28;20378;-69
2023/03/20 12:31:36;;;;;;;6.25;2.80;;;9.70;99.90;;;;;;5089395;28;20054;-69
2023/03/20 12:34:17;;;;;;;6.10;2.60;;;9.60;99.90;;;;;;5088936;28;20146;-70
2023/03/20 12:36:48;;;;;;;6.90;2.47;;;9.60;99.90;;;;;;5090453;28;20055;-70
2023/03/20 12:39:17;;;;;;;7.85;2.63;;;9.60;99.90;;;;;;5084614;28;20066;-71
2023/03/20 12:42:03;;;;;;;5.47;2.47;;;9.60;99.90;;;;;;5071612;28;20113;-70
2023/03/20 12:44:40;;;;;;;5.90;2.50;;;9.60;99.90;;;;;;5074552;28;20078;-69
2023/03/20 12:47:36;;;;;;;6.05;2.65;;;9.50;99.90;;;;;;5089074;28;20044;-71
2023/03/20 12:50:20;;;;;;;7.68;2.70;;;9.60;99.90;;;;;;5084565;28;20054;-70
2023/03/20 12:53:07;;;;;;;5.22;2.40;;;9.50;99.90;;;;;;5088903;28;20111;-69
2023/03/20 12:55:50;;;;;;;5.30;2.70;;;9.40;99.90;;;;;;5088828;28;20455;-69
2023/03/20 12:58:38;;;;;;;6.57;2.70;;;9.40;99.90;;;;;;5088958;28;20036;-69
2023/03/20 13:01:25;;;;;;;5.63;2.88;;;9.30;99.90;;;;;;5088506;28;20043;-70
2023/03/20 13:04:02;;;;;;;7.18;2.88;;;9.30;99.90;;;;;;5077527;28;20109;-69
2023/03/20 13:06:59;;;;;;;3.53;2.50;;;9.30;99.90;;;;;;5087814;28;20078;-69
2023/03/20 13:09:27;;;;;;;5.43;2.88;;;9.30;99.90;;;;;;5074424;28;20051;-69
2023/03/20 13:12:15;;;;;;;5.60;2.72;;;9.30;99.90;;;;;;5081319;28;20048;-69
2023/03/20 13:15:06;;;;;;;5.90;3.28;;;9.20;99.90;;;;;;5081468;28;20446;-69